Disclaimer

Please do not use the information listed here in-flight or in-navigation, as they are not provided to us by the airports but are provided by volunteers, so they might be outdated.

Search


Regions


Airport information page

No radio frequency information is available.

Airport informations:
Latitude: 54° 38' 02.88" N
Longitude: 025° 17' 08.76" E
Elevation: 646 feet - 197 meters
Operating hours: Remarks
Operating agency: Civil government, landing fees and diplomatic clearance may be required
Timezone: UTC+2(+3DT) - Last Sunday in March to last Sunday in October
Fuel: Jet A1, without icing nhibitor.

100/130 MIL Spec, low lead, aviation gasoline (BLUE)

Runway information:
02/20 - 8251 x 164 feet< - >2515 x 50 meters

Recent METARs:
EYVI 151620Z 10004KT 070V130 9999 -SN OVC010 M01/M03 Q1032 R01/2///95 NOSIG
EYVI 151650Z 09005KT 070V140 9999 -SN OVC011 M01/M03 Q1032 R01/2///95 NOSIG
EYVI 151720Z 10004KT 070V130 9999 OVC010 M02/M03 Q1031 R01/2///95 NOSIG

Airport on the map: